Time;durP1;ratioP1;P1;durP2;ratioP2;P2;SDS_P1;SDS_P2;PMS_P1;PMS_P2;Temp;Humidity;BMP_temperature;BMP_pressure;BME280_temperature;BME280_humidity;BME280_pressure;Samples;Min_cycle;Max_cycle;Signal;HPM_P1;HPM_P2
2022/07/14 00:01:01;;;;;;;7.55;3.80;;;;;;;;;;6338373;22;20173;-91
2022/07/14 00:03:29;;;;;;;5.85;3.17;;;;;;;;;;6337882;22;20236;-91
2022/07/14 00:05:58;;;;;;;5.80;3.00;;;;;;;;;;6337865;22;20166;-90
2022/07/14 00:08:27;;;;;;;4.90;2.90;;;;;;;;;;6337828;22;20174;-91
2022/07/14 00:10:54;;;;;;;5.43;3.00;;;;;;;;;;6338448;22;20170;-91
2022/07/14 00:13:22;;;;;;;4.53;3.38;;;;;;;;;;6338094;22;20216;-91
2022/07/14 00:15:49;;;;;;;4.97;3.10;;;;;;;;;;6337770;22;20640;-91
2022/07/14 00:18:19;;;;;;;3.80;2.83;;;;;;;;;;6337848;22;20489;-91
2022/07/14 00:20:47;;;;;;;4.43;2.80;;;;;;;;;;6337980;22;20540;-91
2022/07/14 00:23:17;;;;;;;5.18;3.05;;;;;;;;;;6337833;22;20182;-91
2022/07/14 00:25:44;;;;;;;5.03;3.00;;;;;;;;;;6337849;22;20171;-91
2022/07/14 00:28:15;;;;;;;6.75;2.90;;;;;;;;;;6338289;22;20174;-91
2022/07/14 00:30:42;;;;;;;3.92;2.78;;;;;;;;;;6337881;22;20246;-91
2022/07/14 00:33:11;;;;;;;4.82;2.90;;;;;;;;;;6338053;22;20162;-91
2022/07/14 00:35:39;;;;;;;4.20;2.72;;;;;;;;;;6337800;22;20170;-91
2022/07/14 00:38:06;;;;;;;5.68;3.05;;;;;;;;;;6338171;22;20194;-91
2022/07/14 00:40:36;;;;;;;4.32;2.95;;;;;;;;;;6337958;22;20190;-91
2022/07/14 00:43:04;;;;;;;3.90;2.65;;;;;;;;;;6337731;22;20191;-91
2022/07/14 00:45:31;;;;;;;4.60;2.50;;;;;;;;;;6337889;22;20182;-91
2022/07/14 00:47:58;;;;;;;5.68;2.70;;;;;;;;;;6337841;22;20166;-92
2022/07/14 00:50:30;;;;;;;3.15;2.30;;;;;;;;;;6337985;22;20186;-91
2022/07/14 00:52:57;;;;;;;2.85;2.53;;;;;;;;;;6337493;22;20166;-91
2022/07/14 00:55:25;;;;;;;4.95;3.05;;;;;;;;;;6337726;22;20227;-91
2022/07/14 00:57:54;;;;;;;4.47;2.83;;;;;;;;;;6336768;22;20167;-90
2022/07/14 01:00:21;;;;;;;4.32;2.60;;;;;;;;;;6336859;22;20196;-91
2022/07/14 01:02:49;;;;;;;3.80;2.47;;;;;;;;;;6337306;22;20186;-91
2022/07/14 01:05:22;;;;;;;4.57;2.67;;;;;;;;;;6337133;22;20171;-91
2022/07/14 01:07:50;;;;;;;3.22;2.25;;;;;;;;;;6336930;22;20177;-91
2022/07/14 01:10:17;;;;;;;3.88;2.78;;;;;;;;;;6336496;22;20195;-91
2022/07/14 01:12:48;;;;;;;4.40;2.58;;;;;;;;;;6337336;22;20188;-91
2022/07/14 01:15:19;;;;;;;3.00;2.50;;;;;;;;;;6337268;22;20198;-90
2022/07/14 01:17:47;;;;;;;3.55;2.75;;;;;;;;;;6337407;22;20637;-91
2022/07/14 01:20:15;;;;;;;4.43;2.10;;;;;;;;;;6337254;22;20224;-91
2022/07/14 01:22:46;;;;;;;3.75;2.38;;;;;;;;;;6337344;22;20726;-91
2022/07/14 01:25:14;;;;;;;3.72;2.40;;;;;;;;;;6339307;22;20159;-90
2022/07/14 01:27:41;;;;;;;4.07;2.78;;;;;;;;;;6338702;22;20174;-89
2022/07/14 01:30:09;;;;;;;3.67;2.40;;;;;;;;;;6338962;22;20537;-91
2022/07/14 01:32:37;;;;;;;3.53;2.45;;;;;;;;;;6339392;22;20166;-90
2022/07/14 01:35:04;;;;;;;2.40;2.20;;;;;;;;;;6338902;22;20170;-90
2022/07/14 01:37:32;;;;;;;3.63;2.25;;;;;;;;;;6338842;22;20208;-91
2022/07/14 01:40:01;;;;;;;2.88;2.33;;;;;;;;;;6338743;22;20194;-90
2022/07/14 01:42:28;;;;;;;3.03;2.45;;;;;;;;;;6338560;22;20197;-90
2022/07/14 01:44:55;;;;;;;3.08;2.17;;;;;;;;;;6339046;22;20170;-90
2022/07/14 01:47:25;;;;;;;3.08;2.40;;;;;;;;;;6338357;22;20178;-90
2022/07/14 01:49:52;;;;;;;3.08;2.20;;;;;;;;;;6338937;22;20191;-90
2022/07/14 01:52:19;;;;;;;3.17;2.53;;;;;;;;;;6338538;22;20170;-90
2022/07/14 01:54:47;;;;;;;2.20;2.00;;;;;;;;;;6339238;22;20224;-91
2022/07/14 01:57:16;;;;;;;2.67;2.30;;;;;;;;;;6338860;22;20171;-90
2022/07/14 01:59:43;;;;;;;3.65;2.30;;;;;;;;;;6338082;22;20186;-90
2022/07/14 02:02:10;;;;;;;2.20;2.00;;;;;;;;;;6337796;22;20174;-90
2022/07/14 02:04:38;;;;;;;3.05;2.10;;;;;;;;;;6338099;22;20197;-90
2022/07/14 02:07:05;;;;;;;2.95;2.20;;;;;;;;;;6338453;22;20200;-90
2022/07/14 02:12:19;;;;;;;2.97;2.00;;;;;;;;;;6338791;22;20233;-90
2022/07/14 02:14:46;;;;;;;2.50;2.22;;;;;;;;;;6339288;22;20239;-90
2022/07/14 02:17:15;;;;;;;2.88;2.30;;;;;;;;;;6338746;22;20173;-90
2022/07/14 02:19:43;;;;;;;2.63;2.28;;;;;;;;;;6338465;22;20261;-91
2022/07/14 02:22:10;;;;;;;3.58;2.22;;;;;;;;;;6338862;22;20170;-90
2022/07/14 02:24:37;;;;;;;2.40;2.17;;;;;;;;;;6338638;22;20266;-90
2022/07/14 02:27:05;;;;;;;3.15;2.20;;;;;;;;;;6338317;22;20171;-90
2022/07/14 02:48:38;;;;;;;2.25;2.05;;;;;;;;;;6245064;23;20196;-92
2022/07/14 05:16:03;;;;;;;;;;;;;;;;;;;;;
2022/07/14 05:40:18;;;;;;;2.40;2.13;;;;;;;;;;6200540;22;20192;-91
2022/07/14 05:46:04;;;;;;;3.90;2.03;;;;;;;;;;6202913;23;20263;-90
2022/07/14 05:57:44;;;;;;;4.10;2.60;;;;;;;;;;6154734;23;20198;-91
2022/07/14 06:00:24;;;;;;;4.95;2.38;;;;;;;;;;6152261;23;20274;-91
2022/07/14 06:09:25;;;;;;;4.95;2.50;;;;;;;;;;6143800;23;20171;-91
2022/07/14 06:12:44;;;;;;;;;;;;;;;;;;;;;
2022/07/14 06:22:07;;;;;;;3.80;2.33;;;;;;;;;;6037407;23;20233;-90
2022/07/14 06:28:05;;;;;;;5.63;2.50;;;;;;;;;;6035722;23;20180;-91
2022/07/14 06:34:20;;;;;;;3.45;2.03;;;;;;;;;;5927038;24;20184;-92
2022/07/14 06:40:34;;;;;;;2.47;2.25;;;;;;;;;;5980832;23;20195;-89
2022/07/14 06:52:42;;;;;;;;;;;;;;;;;;;;;
2022/07/14 07:13:51;;;;;;;3.53;2.63;;;;;;;;;;5922544;24;20243;-91
2022/07/14 07:26:33;;;;;;;2.47;1.60;;;;;;;;;;5963851;23;20201;-90
2022/07/14 07:29:18;;;;;;;4.57;1.90;;;;;;;;;;6110850;23;20258;-91
2022/07/14 07:32:01;;;;;;;2.20;1.90;;;;;;;;;;6121177;23;20206;-92
2022/07/14 07:34:28;;;;;;;2.60;1.92;;;;;;;;;;6123238;23;20171;-91
2022/07/14 07:37:07;;;;;;;4.10;2.63;;;;;;;;;;6123322;23;20171;-91
2022/07/14 07:39:51;;;;;;;2.55;2.08;;;;;;;;;;6123293;23;20543;-90
2022/07/14 07:45:27;;;;;;;3.67;1.92;;;;;;;;;;6119596;23;20191;-91
2022/07/14 07:57:27;;;;;;;2.67;1.90;;;;;;;;;;5992422;23;20185;-90
2022/07/14 08:31:35;;;;;;;3.22;1.98;;;;;;;;;;6336724;22;20178;-89
2022/07/14 08:34:03;;;;;;;2.20;1.95;;;;;;;;;;6342001;22;20181;-88
2022/07/14 08:36:31;;;;;;;2.45;1.98;;;;;;;;;;6341052;22;20623;-89
2022/07/14 08:39:00;;;;;;;3.25;2.13;;;;;;;;;;6341814;22;20171;-89
2022/07/14 08:41:27;;;;;;;3.20;2.00;;;;;;;;;;6310011;22;20213;-87
2022/07/14 08:43:58;;;;;;;3.78;1.80;;;;;;;;;;6310997;22;20213;-89
2022/07/14 08:46:26;;;;;;;2.15;1.75;;;;;;;;;;6310644;22;20198;-89
2022/07/14 08:48:55;;;;;;;1.95;1.42;;;;;;;;;;6319932;22;20170;-88
2022/07/14 08:51:25;;;;;;;2.83;1.65;;;;;;;;;;6317029;22;20213;-88
2022/07/14 08:53:53;;;;;;;2.47;1.80;;;;;;;;;;6311777;22;20167;-88
2022/07/14 08:56:20;;;;;;;2.13;1.77;;;;;;;;;;6310374;22;20171;-88
2022/07/14 08:58:58;;;;;;;3.63;2.00;;;;;;;;;;6310967;22;20224;-89
2022/07/14 09:01:28;;;;;;;2.10;1.90;;;;;;;;;;6312334;22;20181;-90
2022/07/14 09:03:59;;;;;;;1.63;1.50;;;;;;;;;;6311653;22;20171;-87
2022/07/14 09:06:45;;;;;;;2.95;1.58;;;;;;;;;;6310082;22;20167;-88
2022/07/14 09:09:26;;;;;;;3.17;1.55;;;;;;;;;;6310028;22;20175;-88
2022/07/14 09:11:55;;;;;;;2.22;1.63;;;;;;;;;;6310518;22;20182;-88
2022/07/14 09:14:22;;;;;;;2.45;1.95;;;;;;;;;;6310478;22;20163;-89
2022/07/14 09:16:50;;;;;;;2.65;2.10;;;;;;;;;;6310027;22;20171;-89
2022/07/14 09:19:20;;;;;;;3.42;2.17;;;;;;;;;;6311082;22;20246;-88
2022/07/14 09:21:53;;;;;;;2.45;2.22;;;;;;;;;;6310452;22;20218;-89
2022/07/14 09:24:26;;;;;;;3.05;2.40;;;;;;;;;;6310133;22;20183;-88
2022/07/14 09:26:56;;;;;;;2.45;2.25;;;;;;;;;;6308823;22;20199;-89
2022/07/14 09:29:27;;;;;;;2.70;2.20;;;;;;;;;;6310236;22;20191;-88
2022/07/14 09:31:54;;;;;;;2.35;2.10;;;;;;;;;;6309480;22;20183;-88
2022/07/14 09:34:31;;;;;;;3.03;1.90;;;;;;;;;;6309103;22;20167;-89
2022/07/14 09:37:21;;;;;;;3.45;1.80;;;;;;;;;;6309891;22;20170;-90
2022/07/14 10:27:33;;;;;;;;;;;;;;;;;;;;;
2022/07/14 10:36:40;;;;;;;4.03;2.30;;;;;;;;;;6011909;23;20180;-89
2022/07/14 10:39:34;;;;;;;3.92;2.63;;;;;;;;;;5923395;24;20179;-89
2022/07/14 10:42:22;;;;;;;3.80;2.42;;;;;;;;;;6014648;23;20209;-89
2022/07/14 10:47:57;;;;;;;5.20;1.80;;;;;;;;;;6036655;23;20236;-90
2022/07/14 10:53:58;;;;;;;2.03;1.88;;;;;;;;;;6004021;23;20219;-89
2022/07/14 11:41:08;;;;;;;;;;;;;;;;;;;;;
2022/07/14 11:56:49;;;;;;;4.50;2.05;;;;;;;;;;5911952;24;20172;-90
2022/07/14 11:59:33;;;;;;;6.13;2.33;;;;;;;;;;5919989;24;20176;-89
2022/07/14 12:02:09;;;;;;;2.53;2.05;;;;;;;;;;5974545;24;20174;-91
2022/07/14 12:05:08;;;;;;;3.88;2.03;;;;;;;;;;5978460;24;20177;-90
2022/07/14 12:30:16;;;;;;;2.42;1.90;;;;;;;;;;5801176;24;20198;-89
2022/07/14 12:33:01;;;;;;;2.25;2.00;;;;;;;;;;5896862;24;20234;-89
2022/07/14 12:36:00;;;;;;;2.90;1.90;;;;;;;;;;5896616;24;20176;-89
2022/07/14 12:45:02;;;;;;;1.77;1.63;;;;;;;;;;5917125;24;20526;-92
2022/07/14 12:54:28;;;;;;;;;;;;;;;;;;;;;
2022/07/14 12:57:15;;;;;;;2.00;1.48;;;;;;;;;;5961071;23;20181;-92
2022/07/14 13:00:22;;;;;;;;;;;;;;;;;;;;;
2022/07/14 13:06:03;;;;;;;3.10;1.75;;;;;;;;;;6085658;23;20195;-92
2022/07/14 13:11:52;;;;;;;2.72;1.80;;;;;;;;;;6066097;23;20179;-91
2022/07/14 13:41:21;;;;;;;2.30;1.70;;;;;;;;;;6231066;22;20234;-88
2022/07/14 13:52:46;;;;;;;3.50;1.70;;;;;;;;;;6247227;23;20592;-92
2022/07/14 14:05:15;;;;;;;2.65;1.60;;;;;;;;;;5925517;24;20265;-94
2022/07/14 14:08:26;;;;;;;2.25;1.70;;;;;;;;;;6038072;23;20172;-91
2022/07/14 14:14:45;;;;;;;2.97;1.88;;;;;;;;;;6035506;23;20181;-89
2022/07/14 14:34:19;;;;;;;;;;;;;;;;;;;;;
2022/07/14 14:36:49;;;;;;;3.67;1.98;;;;;;;;;;6153630;23;20177;-92
2022/07/14 14:39:17;;;;;;;2.67;1.80;;;;;;;;;;6229211;22;20199;-90
2022/07/14 14:41:50;;;;;;;3.72;1.88;;;;;;;;;;6247770;23;20173;-91
2022/07/14 14:44:20;;;;;;;2.22;1.80;;;;;;;;;;6246920;23;20188;-92
2022/07/14 14:47:17;;;;;;;6.47;2.13;;;;;;;;;;6245493;23;20219;-94
2022/07/14 14:49:55;;;;;;;1.90;1.70;;;;;;;;;;6245313;22;20195;-91
2022/07/14 14:52:49;;;;;;;3.20;2.00;;;;;;;;;;6246252;23;20173;-91
2022/07/14 14:58:06;;;;;;;2.03;1.90;;;;;;;;;;6244737;23;20211;-92
2022/07/14 23:08:53;;;;;;;3.53;2.85;;;;;;;;;;6089680;23;20174;-93
2022/07/14 23:18:06;;;;;;;4.10;2.85;;;;;;;;;;6167281;23;20145;-92
2022/07/14 23:26:08;;;;;;;3.17;2.60;;;;;;;;;;6257369;22;20203;-93
2022/07/14 23:55:49;;;;;;;2.85;2.40;;;;;;;;;;6108212;23;20224;-92
